Airfield :
LOGIN :

Register | Disclaimer

   EN    FR    IT 

 










Legend :    VFR   Marginal VFR   IFR   Intensive IFR   Very Intensive IFR
Visi :
Ceiling :
>= 8 km
>= 3000ft
5 to 8 km
1000 to 3000 ft
1500m to 5 km
500 to 1000 ft
800 to 1500m
200 to 500 ft
< 800m
< 200 ft
Symbols :   Thunderstorms  Fog  Heavy snow  Heavy precipitations  Wind > 20 kt
SIGMETs :     Misc.  Thunderstorms  Icing  Turbulence  Mountain Waves  Volcanic Ashes






- Airport Elevation : 425 ft
- IATA code : DTM


EDLW - Dortmund

CURRENT METAR :
  • 210420Z 16005KT CAVOK 07/06 Q1015

EXPIRED METARs :
  • 210350Z 16004KT CAVOK 07/06 Q1015
  • 210320Z 16006KT CAVOK 07/06 Q1015
  • 210250Z AUTO 16006KT 9999 // NCD 07/06 Q1015
  • 210220Z AUTO 16005KT 9999 // FEW091/// 08/06 Q1015
  • 210150Z AUTO 16004KT 9999 // BKN089/// 09/07 Q1015

TAF TAF EDLW
Valid from the 21 at 04:00 until the 22 at 00:00 UTC


210350Z 2104/2124 18005KT CAVOK
BECMG 2106/2109 33005KT
TEMPO 2112/2118 35010KT



MET'MAP, your aeronautical weather chart ! - Copyright ORBIFLY December 2007 - Disclaimer

ORBIFLY MET'MAP TEAM :

Programming & Development : Alexandra Zaïnal
Concept & original design : Baudouin d'Aumeries
Assistance for programming : Marc-Olivier Méhu
Technical & hardware support : Manuel Goepfert

Contact : metmap@orbifly.com




SOURCES & CREDITS :

   NOAA